sensor_id;sensor_type;location;lat;lon;timestamp;pressure;altitude;pressure_sealevel;temperature;humidity
52653;BME280;39353;42.864;12.014;2023-02-08T00:01:27;98983.39;;;20.51;42.93
52653;BME280;39353;42.864;12.014;2023-02-08T00:04:08;98984.12;;;20.49;43.05
52653;BME280;39353;42.864;12.014;2023-02-08T00:06:49;98981.14;;;20.49;42.93
52653;BME280;39353;42.864;12.014;2023-02-08T00:09:32;98977.52;;;20.47;43.04
52653;BME280;39353;42.864;12.014;2023-02-08T00:12:13;98978.44;;;20.46;43.01
52653;BME280;39353;42.864;12.014;2023-02-08T00:14:43;98978.92;;;20.45;43.07
52653;BME280;39353;42.864;12.014;2023-02-08T00:17:24;98981.16;;;20.43;43.01
52653;BME280;39353;42.864;12.014;2023-02-08T00:19:52;98983.02;;;20.41;43.08
52653;BME280;39353;42.864;12.014;2023-02-08T00:22:20;98980.78;;;20.40;43.05
52653;BME280;39353;42.864;12.014;2023-02-08T00:24:48;98980.20;;;20.37;43.17
52653;BME280;39353;42.864;12.014;2023-02-08T00:27:17;98981.85;;;20.35;43.18
52653;BME280;39353;42.864;12.014;2023-02-08T00:29:59;98985.23;;;20.34;43.15
52653;BME280;39353;42.864;12.014;2023-02-08T00:32:30;98986.84;;;20.33;43.23
52653;BME280;39353;42.864;12.014;2023-02-08T00:35:11;98988.16;;;20.31;43.28
52653;BME280;39353;42.864;12.014;2023-02-08T00:37:52;98987.30;;;20.29;43.31
52653;BME280;39353;42.864;12.014;2023-02-08T00:40:33;98990.10;;;20.27;43.33
52653;BME280;39353;42.864;12.014;2023-02-08T00:43:14;98994.44;;;20.24;43.45
52653;BME280;39353;42.864;12.014;2023-02-08T00:45:58;98997.52;;;20.23;43.45
52653;BME280;39353;42.864;12.014;2023-02-08T00:48:39;98996.27;;;20.21;43.54
52653;BME280;39353;42.864;12.014;2023-02-08T00:51:09;98998.15;;;20.20;43.56
52653;BME280;39353;42.864;12.014;2023-02-08T00:53:53;98999.46;;;20.19;43.57
52653;BME280;39353;42.864;12.014;2023-02-08T00:56:35;98997.67;;;20.17;43.62
52653;BME280;39353;42.864;12.014;2023-02-08T00:59:02;99001.73;;;20.16;43.60
52653;BME280;39353;42.864;12.014;2023-02-08T01:01:29;99000.71;;;20.16;43.64
52653;BME280;39353;42.864;12.014;2023-02-08T01:04:10;98998.09;;;20.14;43.67
52653;BME280;39353;42.864;12.014;2023-02-08T01:06:37;98989.43;;;20.13;43.74
52653;BME280;39353;42.864;12.014;2023-02-08T01:09:19;98992.92;;;20.11;43.74
52653;BME280;39353;42.864;12.014;2023-02-08T01:11:51;98989.50;;;20.09;43.74
52653;BME280;39353;42.864;12.014;2023-02-08T01:14:18;98988.42;;;20.07;43.78
52653;BME280;39353;42.864;12.014;2023-02-08T01:16:46;98989.15;;;20.06;43.79
52653;BME280;39353;42.864;12.014;2023-02-08T01:19:14;98988.55;;;20.05;43.69
52653;BME280;39353;42.864;12.014;2023-02-08T01:21:42;98990.33;;;20.04;43.72
52653;BME280;39353;42.864;12.014;2023-02-08T01:24:23;98987.75;;;20.02;43.76
52653;BME280;39353;42.864;12.014;2023-02-08T01:26:50;98985.58;;;20.01;43.77
52653;BME280;39353;42.864;12.014;2023-02-08T01:29:31;98986.79;;;20.00;43.72
52653;BME280;39353;42.864;12.014;2023-02-08T01:31:59;98980.48;;;19.98;43.80
52653;BME280;39353;42.864;12.014;2023-02-08T01:34:29;98979.80;;;19.96;43.86
52653;BME280;39353;42.864;12.014;2023-02-08T01:37:10;98976.26;;;19.95;43.99
52653;BME280;39353;42.864;12.014;2023-02-08T01:39:51;98978.98;;;19.94;44.03
52653;BME280;39353;42.864;12.014;2023-02-08T01:42:35;98982.48;;;19.92;44.02
52653;BME280;39353;42.864;12.014;2023-02-08T01:45:24;98979.18;;;19.91;44.02
52653;BME280;39353;42.864;12.014;2023-02-08T01:48:05;98982.94;;;19.90;44.10
52653;BME280;39353;42.864;12.014;2023-02-08T01:53:32;98981.53;;;19.87;44.04
52653;BME280;39353;42.864;12.014;2023-02-08T01:56:29;98988.31;;;19.87;44.10
52653;BME280;39353;42.864;12.014;2023-02-08T01:59:02;98987.60;;;19.85;43.99
52653;BME280;39353;42.864;12.014;2023-02-08T02:01:48;98986.63;;;19.84;44.03
52653;BME280;39353;42.864;12.014;2023-02-08T02:04:30;98981.56;;;19.83;44.16
52653;BME280;39353;42.864;12.014;2023-02-08T02:07:00;98979.21;;;19.83;44.09
52653;BME280;39353;42.864;12.014;2023-02-08T02:10:09;98973.85;;;19.82;44.06
52653;BME280;39353;42.864;12.014;2023-02-08T02:12:57;98968.61;;;19.80;44.19
52653;BME280;39353;42.864;12.014;2023-02-08T02:15:43;98971.96;;;19.79;44.23
52653;BME280;39353;42.864;12.014;2023-02-08T02:18:32;98966.48;;;19.78;44.21
52653;BME280;39353;42.864;12.014;2023-02-08T02:24:02;98968.06;;;19.75;44.31
52653;BME280;39353;42.864;12.014;2023-02-08T02:42:13;98957.02;;;19.66;44.52
52653;BME280;39353;42.864;12.014;2023-02-08T02:48:27;98952.52;;;19.64;44.54
52653;BME280;39353;42.864;12.014;2023-02-08T02:51:05;98951.15;;;19.63;44.58
52653;BME280;39353;42.864;12.014;2023-02-08T02:53:53;98948.58;;;19.62;44.49
52653;BME280;39353;42.864;12.014;2023-02-08T02:56:37;98950.16;;;19.61;44.55
52653;BME280;39353;42.864;12.014;2023-02-08T02:59:21;98939.52;;;19.59;44.57
52653;BME280;39353;42.864;12.014;2023-02-08T03:02:04;98943.23;;;19.58;44.55
52653;BME280;39353;42.864;12.014;2023-02-08T03:04:49;98945.73;;;19.57;44.60
52653;BME280;39353;42.864;12.014;2023-02-08T03:19:12;98944.88;;;19.52;44.60
52653;BME280;39353;42.864;12.014;2023-02-08T03:21:54;98941.81;;;19.52;44.74
52653;BME280;39353;42.864;12.014;2023-02-08T03:30:27;98945.08;;;19.48;44.72
52653;BME280;39353;42.864;12.014;2023-02-08T03:36:01;98941.66;;;19.46;44.60
52653;BME280;39353;42.864;12.014;2023-02-08T03:38:47;98943.86;;;19.45;44.68
52653;BME280;39353;42.864;12.014;2023-02-08T03:41:36;98938.18;;;19.44;44.65
52653;BME280;39353;42.864;12.014;2023-02-08T03:44:11;98941.69;;;19.43;44.64
52653;BME280;39353;42.864;12.014;2023-02-08T03:46:48;98939.55;;;19.43;44.73
52653;BME280;39353;42.864;12.014;2023-02-08T03:49:35;98939.59;;;19.41;44.75
52653;BME280;39353;42.864;12.014;2023-02-08T03:52:09;98939.15;;;19.40;44.83
52653;BME280;39353;42.864;12.014;2023-02-08T03:54:50;98939.98;;;19.39;44.73
52653;BME280;39353;42.864;12.014;2023-02-08T03:57:39;98937.64;;;19.38;44.66
52653;BME280;39353;42.864;12.014;2023-02-08T04:00:30;98937.13;;;19.37;44.66
52653;BME280;39353;42.864;12.014;2023-02-08T04:03:14;98942.17;;;19.36;44.58
52653;BME280;39353;42.864;12.014;2023-02-08T04:05:57;98939.25;;;19.35;44.69
52653;BME280;39353;42.864;12.014;2023-02-08T04:08:38;98937.82;;;19.34;44.81
52653;BME280;39353;42.864;12.014;2023-02-08T04:11:05;98937.42;;;19.33;44.73
52653;BME280;39353;42.864;12.014;2023-02-08T04:13:46;98933.06;;;19.32;44.83
52653;BME280;39353;42.864;12.014;2023-02-08T04:16:27;98935.04;;;19.32;44.89
52653;BME280;39353;42.864;12.014;2023-02-08T04:18:55;98940.98;;;19.31;44.86
52653;BME280;39353;42.864;12.014;2023-02-08T04:21:36;98936.52;;;19.29;44.84
52653;BME280;39353;42.864;12.014;2023-02-08T04:24:17;98937.67;;;19.28;44.94
52653;BME280;39353;42.864;12.014;2023-02-08T04:26:59;98934.14;;;19.27;44.75
52653;BME280;39353;42.864;12.014;2023-02-08T04:29:40;98931.52;;;19.26;44.84
52653;BME280;39353;42.864;12.014;2023-02-08T04:32:21;98930.50;;;19.26;44.81
52653;BME280;39353;42.864;12.014;2023-02-08T04:35:06;98933.40;;;19.24;44.92
52653;BME280;39353;42.864;12.014;2023-02-08T04:37:48;98929.63;;;19.24;44.82
52653;BME280;39353;42.864;12.014;2023-02-08T04:40:29;98932.27;;;19.23;44.81
52653;BME280;39353;42.864;12.014;2023-02-08T04:42:57;98929.41;;;19.23;44.74
52653;BME280;39353;42.864;12.014;2023-02-08T04:45:24;98925.50;;;19.22;44.76
52653;BME280;39353;42.864;12.014;2023-02-08T04:48:07;98923.25;;;19.21;44.79
52653;BME280;39353;42.864;12.014;2023-02-08T04:50:48;98923.83;;;19.21;44.85
52653;BME280;39353;42.864;12.014;2023-02-08T04:53:30;98927.39;;;19.20;45.01
52653;BME280;39353;42.864;12.014;2023-02-08T04:56:12;98924.34;;;19.20;44.93
52653;BME280;39353;42.864;12.014;2023-02-08T04:58:40;98922.88;;;19.18;44.98
52653;BME280;39353;42.864;12.014;2023-02-08T05:01:07;98922.52;;;19.18;44.99
52653;BME280;39353;42.864;12.014;2023-02-08T05:03:50;98923.30;;;19.17;44.86
52653;BME280;39353;42.864;12.014;2023-02-08T05:06:31;98921.02;;;19.17;45.00
52653;BME280;39353;42.864;12.014;2023-02-08T05:09:02;98918.52;;;19.15;45.00
52653;BME280;39353;42.864;12.014;2023-02-08T05:11:29;98918.88;;;19.13;44.94
52653;BME280;39353;42.864;12.014;2023-02-08T05:13:57;98920.23;;;19.12;45.06
52653;BME280;39353;42.864;12.014;2023-02-08T05:16:26;98920.95;;;19.13;44.99
52653;BME280;39353;42.864;12.014;2023-02-08T05:19:10;98924.77;;;19.12;45.00
52653;BME280;39353;42.864;12.014;2023-02-08T05:21:43;98923.30;;;19.13;44.90
52653;BME280;39353;42.864;12.014;2023-02-08T05:24:11;98919.68;;;19.13;44.94
52653;BME280;39353;42.864;12.014;2023-02-08T05:26:39;98915.80;;;19.13;44.83
52653;BME280;39353;42.864;12.014;2023-02-08T05:29:07;98912.07;;;19.13;44.98
52653;BME280;39353;42.864;12.014;2023-02-08T05:31:35;98908.59;;;19.13;44.92
52653;BME280;39353;42.864;12.014;2023-02-08T05:34:17;98916.21;;;19.13;45.18
52653;BME280;39353;42.864;12.014;2023-02-08T05:36:44;98915.33;;;19.13;45.29
52653;BME280;39353;42.864;12.014;2023-02-08T05:39:13;98920.32;;;19.13;45.37
52653;BME280;39353;42.864;12.014;2023-02-08T05:41:40;98922.67;;;19.13;45.33
52653;BME280;39353;42.864;12.014;2023-02-08T05:44:22;98922.85;;;19.13;45.25
52653;BME280;39353;42.864;12.014;2023-02-08T05:46:49;98921.38;;;19.14;45.32
52653;BME280;39353;42.864;12.014;2023-02-08T05:49:16;98923.58;;;19.13;45.45
52653;BME280;39353;42.864;12.014;2023-02-08T05:51:44;98921.65;;;19.13;45.34
52653;BME280;39353;42.864;12.014;2023-02-08T05:54:25;98924.52;;;19.12;45.76
52653;BME280;39353;42.864;12.014;2023-02-08T05:56:52;98932.98;;;19.10;45.96
52653;BME280;39353;42.864;12.014;2023-02-08T05:59:33;98934.15;;;19.08;45.26
52653;BME280;39353;42.864;12.014;2023-02-08T06:02:14;98930.55;;;19.08;45.55
52653;BME280;39353;42.864;12.014;2023-02-08T06:04:42;98935.27;;;19.08;45.51
52653;BME280;39353;42.864;12.014;2023-02-08T06:07:10;98933.36;;;19.06;44.91
52653;BME280;39353;42.864;12.014;2023-02-08T06:09:37;98935.25;;;19.03;44.97
52653;BME280;39353;42.864;12.014;2023-02-08T06:12:05;98933.67;;;19.00;43.44
52653;BME280;39353;42.864;12.014;2023-02-08T06:14:46;98932.69;;;18.97;44.13
52653;BME280;39353;42.864;12.014;2023-02-08T06:17:27;98934.66;;;18.98;44.49
52653;BME280;39353;42.864;12.014;2023-02-08T06:19:54;98928.14;;;18.98;44.61
52653;BME280;39353;42.864;12.014;2023-02-08T06:22:22;98926.30;;;18.98;44.22
52653;BME280;39353;42.864;12.014;2023-02-08T06:25:04;98925.48;;;18.95;44.28
52653;BME280;39353;42.864;12.014;2023-02-08T06:27:46;98931.18;;;18.95;44.61
52653;BME280;39353;42.864;12.014;2023-02-08T06:30:13;98932.61;;;18.95;45.19
52653;BME280;39353;42.864;12.014;2023-02-08T06:32:53;98933.83;;;18.95;44.86
52653;BME280;39353;42.864;12.014;2023-02-08T06:35:34;98932.08;;;18.96;44.77
52653;BME280;39353;42.864;12.014;2023-02-08T06:38:15;98936.50;;;18.97;44.47
52653;BME280;39353;42.864;12.014;2023-02-08T06:40:45;98939.12;;;18.97;44.47
52653;BME280;39353;42.864;12.014;2023-02-08T06:43:14;98934.46;;;18.96;44.74
52653;BME280;39353;42.864;12.014;2023-02-08T06:45:44;98936.13;;;18.97;44.67
52653;BME280;39353;42.864;12.014;2023-02-08T06:48:12;98937.35;;;18.98;44.89
52653;BME280;39353;42.864;12.014;2023-02-08T06:50:54;98933.33;;;19.00;44.88
52653;BME280;39353;42.864;12.014;2023-02-08T06:53:34;98931.08;;;19.00;45.09
52653;BME280;39353;42.864;12.014;2023-02-08T06:56:18;98933.52;;;19.00;45.25
52653;BME280;39353;42.864;12.014;2023-02-08T06:59:00;98930.16;;;19.00;45.38
52653;BME280;39353;42.864;12.014;2023-02-08T07:01:42;98931.34;;;19.01;45.61
52653;BME280;39353;42.864;12.014;2023-02-08T07:04:24;98928.14;;;19.02;45.49
52653;BME280;39353;42.864;12.014;2023-02-08T07:06:51;98930.64;;;19.04;45.49
52653;BME280;39353;42.864;12.014;2023-02-08T07:09:19;98932.89;;;19.05;45.42
52653;BME280;39353;42.864;12.014;2023-02-08T07:11:46;98931.04;;;19.07;45.53
52653;BME280;39353;42.864;12.014;2023-02-08T07:14:27;98930.58;;;19.08;45.63
52653;BME280;39353;42.864;12.014;2023-02-08T07:16:55;98930.33;;;19.07;45.19
52653;BME280;39353;42.864;12.014;2023-02-08T07:19:39;98928.90;;;19.07;45.06
52653;BME280;39353;42.864;12.014;2023-02-08T07:22:20;98932.84;;;19.07;45.10
52653;BME280;39353;42.864;12.014;2023-02-08T07:25:03;98938.55;;;19.08;45.36
52653;BME280;39353;42.864;12.014;2023-02-08T07:27:30;98938.77;;;19.11;45.37
52653;BME280;39353;42.864;12.014;2023-02-08T07:30:12;98937.58;;;19.13;45.42
52653;BME280;39353;42.864;12.014;2023-02-08T07:32:53;98941.98;;;19.16;45.48
52653;BME280;39353;42.864;12.014;2023-02-08T07:35:20;98939.42;;;19.17;45.48
52653;BME280;39353;42.864;12.014;2023-02-08T07:38:01;98942.46;;;19.21;45.64
52653;BME280;39353;42.864;12.014;2023-02-08T07:40:42;98942.33;;;19.24;45.97
52653;BME280;39353;42.864;12.014;2023-02-08T07:43:25;98938.85;;;19.26;45.91
52653;BME280;39353;42.864;12.014;2023-02-08T07:45:54;98939.23;;;19.29;45.82
52653;BME280;39353;42.864;12.014;2023-02-08T07:48:36;98936.91;;;19.30;45.75
52653;BME280;39353;42.864;12.014;2023-02-08T07:51:19;98936.58;;;19.30;44.32
52653;BME280;39353;42.864;12.014;2023-02-08T07:53:59;98934.11;;;19.26;44.32
52653;BME280;39353;42.864;12.014;2023-02-08T07:56:40;98934.94;;;19.25;44.92
52653;BME280;39353;42.864;12.014;2023-02-08T07:59:07;98932.08;;;19.25;44.79
52653;BME280;39353;42.864;12.014;2023-02-08T08:01:35;98931.21;;;19.24;44.83
52653;BME280;39353;42.864;12.014;2023-02-08T08:04:16;98935.58;;;19.24;44.85
52653;BME280;39353;42.864;12.014;2023-02-08T08:07:02;98940.30;;;19.24;44.93
52653;BME280;39353;42.864;12.014;2023-02-08T08:09:43;98939.48;;;19.25;44.87
52653;BME280;39353;42.864;12.014;2023-02-08T08:12:11;98938.23;;;19.25;44.92
52653;BME280;39353;42.864;12.014;2023-02-08T08:14:52;98937.93;;;19.24;44.86
52653;BME280;39353;42.864;12.014;2023-02-08T08:17:19;98939.49;;;19.25;44.84
52653;BME280;39353;42.864;12.014;2023-02-08T08:19:47;98941.91;;;19.25;44.91
52653;BME280;39353;42.864;12.014;2023-02-08T08:22:27;98943.17;;;19.24;44.93
52653;BME280;39353;42.864;12.014;2023-02-08T08:25:08;98944.36;;;19.24;44.89
52653;BME280;39353;42.864;12.014;2023-02-08T08:27:49;98945.55;;;19.24;44.88
52653;BME280;39353;42.864;12.014;2023-02-08T08:30:16;98945.92;;;19.24;44.76
52653;BME280;39353;42.864;12.014;2023-02-08T08:32:57;98944.63;;;19.24;44.83
52653;BME280;39353;42.864;12.014;2023-02-08T08:35:24;98945.45;;;19.24;44.83
52653;BME280;39353;42.864;12.014;2023-02-08T08:37:51;98946.16;;;19.24;44.93
52653;BME280;39353;42.864;12.014;2023-02-08T08:40:19;98949.36;;;19.24;44.87
52653;BME280;39353;42.864;12.014;2023-02-08T08:43:00;98949.64;;;19.23;44.82
52653;BME280;39353;42.864;12.014;2023-02-08T08:45:27;98948.24;;;19.20;44.64
52653;BME280;39353;42.864;12.014;2023-02-08T08:48:08;98947.63;;;19.19;44.55
52653;BME280;39353;42.864;12.014;2023-02-08T08:50:49;98942.84;;;19.18;44.24
52653;BME280;39353;42.864;12.014;2023-02-08T08:53:30;98938.85;;;19.16;44.47
52653;BME280;39353;42.864;12.014;2023-02-08T08:55:57;98942.00;;;19.17;44.70
52653;BME280;39353;42.864;12.014;2023-02-08T08:58:27;98940.30;;;19.18;44.85
52653;BME280;39353;42.864;12.014;2023-02-08T09:01:07;98941.20;;;19.15;42.03
52653;BME280;39353;42.864;12.014;2023-02-08T09:03:35;98937.23;;;19.11;42.45
52653;BME280;39353;42.864;12.014;2023-02-08T09:06:02;98937.95;;;19.10;43.30
52653;BME280;39353;42.864;12.014;2023-02-08T09:08:29;98939.70;;;19.09;43.73
52653;BME280;39353;42.864;12.014;2023-02-08T09:11:03;98946.45;;;19.10;44.20
52653;BME280;39353;42.864;12.014;2023-02-08T09:13:44;98949.38;;;19.13;44.83
52653;BME280;39353;42.864;12.014;2023-02-08T09:16:16;98949.70;;;19.15;44.87
52653;BME280;39353;42.864;12.014;2023-02-08T09:18:44;98949.92;;;19.18;44.81
52653;BME280;39353;42.864;12.014;2023-02-08T09:21:25;98946.45;;;19.21;44.63
52653;BME280;39353;42.864;12.014;2023-02-08T09:23:53;98944.36;;;19.24;44.62
52653;BME280;39353;42.864;12.014;2023-02-08T09:26:37;98943.77;;;19.26;44.48
52653;BME280;39353;42.864;12.014;2023-02-08T09:29:18;98945.23;;;19.27;44.55
52653;BME280;39353;42.864;12.014;2023-02-08T09:31:58;98947.25;;;19.32;44.68
52653;BME280;39353;42.864;12.014;2023-02-08T09:34:26;98948.45;;;19.35;44.68
52653;BME280;39353;42.864;12.014;2023-02-08T09:37:08;98942.59;;;19.39;44.75
52653;BME280;39353;42.864;12.014;2023-02-08T09:39:35;98942.00;;;19.42;44.76
52653;BME280;39353;42.864;12.014;2023-02-08T09:42:31;98942.09;;;19.44;44.20
52653;BME280;39353;42.864;12.014;2023-02-08T09:46:00;98937.98;;;19.44;44.29
52653;BME280;39353;42.864;12.014;2023-02-08T09:48:35;98941.38;;;19.43;44.22
52653;BME280;39353;42.864;12.014;2023-02-08T09:51:16;98938.52;;;19.43;44.24
52653;BME280;39353;42.864;12.014;2023-02-08T09:54:27;98942.41;;;19.42;44.26
52653;BME280;39353;42.864;12.014;2023-02-08T09:56:59;98947.04;;;19.41;44.24
52653;BME280;39353;42.864;12.014;2023-02-08T09:59:32;98949.71;;;19.40;44.33
52653;BME280;39353;42.864;12.014;2023-02-08T10:02:37;98949.89;;;19.38;44.39
52653;BME280;39353;42.864;12.014;2023-02-08T10:05:12;98947.14;;;19.37;44.44
52653;BME280;39353;42.864;12.014;2023-02-08T10:07:41;98949.09;;;19.36;44.44
52653;BME280;39353;42.864;12.014;2023-02-08T10:32:59;98934.77;;;19.23;44.57
52653;BME280;39353;42.864;12.014;2023-02-08T10:35:36;98928.26;;;19.22;44.72
52653;BME280;39353;42.864;12.014;2023-02-08T10:41:02;98926.73;;;19.19;44.65
52653;BME280;39353;42.864;12.014;2023-02-08T10:51:47;98916.23;;;19.14;44.76
52653;BME280;39353;42.864;12.014;2023-02-08T10:54:28;98913.95;;;19.12;44.75
52653;BME280;39353;42.864;12.014;2023-02-08T10:57:19;98904.73;;;19.10;44.84
52653;BME280;39353;42.864;12.014;2023-02-08T11:00:06;98904.47;;;19.09;44.83
52653;BME280;39353;42.864;12.014;2023-02-08T11:02:54;98900.09;;;19.08;44.79
52653;BME280;39353;42.864;12.014;2023-02-08T11:05:36;98898.39;;;19.07;44.76
52653;BME280;39353;42.864;12.014;2023-02-08T11:08:21;98902.02;;;19.06;44.77
52653;BME280;39353;42.864;12.014;2023-02-08T11:11:08;98896.45;;;19.04;44.80
52653;BME280;39353;42.864;12.014;2023-02-08T11:13:43;98894.28;;;19.02;44.98
52653;BME280;39353;42.864;12.014;2023-02-08T11:16:24;98895.38;;;19.00;44.92
52653;BME280;39353;42.864;12.014;2023-02-08T11:18:57;98890.79;;;18.99;44.92
52653;BME280;39353;42.864;12.014;2023-02-08T11:21:39;98898.20;;;18.96;44.94
52653;BME280;39353;42.864;12.014;2023-02-08T11:24:42;98892.19;;;18.95;45.07
52653;BME280;39353;42.864;12.014;2023-02-08T11:27:33;98893.13;;;18.93;45.07
52653;BME280;39353;42.864;12.014;2023-02-08T11:33:14;98883.38;;;18.91;45.11
52653;BME280;39353;42.864;12.014;2023-02-08T11:38:27;98888.12;;;18.87;45.20
52653;BME280;39353;42.864;12.014;2023-02-08T11:40:58;98882.39;;;18.85;45.13
52653;BME280;39353;42.864;12.014;2023-02-08T11:43:30;98884.39;;;18.85;45.24
52653;BME280;39353;42.864;12.014;2023-02-08T11:46:12;98877.88;;;18.83;45.22
52653;BME280;39353;42.864;12.014;2023-02-08T11:49:02;98883.86;;;18.82;45.23
52653;BME280;39353;42.864;12.014;2023-02-08T11:51:45;98877.48;;;18.81;45.24
52653;BME280;39353;42.864;12.014;2023-02-08T11:54:37;98878.17;;;18.79;45.19
52653;BME280;39353;42.864;12.014;2023-02-08T11:57:25;98870.02;;;18.78;45.07
52653;BME280;39353;42.864;12.014;2023-02-08T12:00:20;98867.27;;;18.76;44.37
52653;BME280;39353;42.864;12.014;2023-02-08T12:02:50;98867.27;;;18.75;44.02
52653;BME280;39353;42.864;12.014;2023-02-08T12:11:42;98860.66;;;18.74;43.81
52653;BME280;39353;42.864;12.014;2023-02-08T12:20:00;98853.18;;;18.85;43.83
52653;BME280;39353;42.864;12.014;2023-02-08T12:22:30;98849.60;;;18.95;44.20
52653;BME280;39353;42.864;12.014;2023-02-08T12:28:09;98847.99;;;19.13;45.31
52653;BME280;39353;42.864;12.014;2023-02-08T12:46:30;98839.84;;;19.89;51.21
52653;BME280;39353;42.864;12.014;2023-02-08T12:49:37;98832.38;;;20.03;51.46
52653;BME280;39353;42.864;12.014;2023-02-08T12:53:04;98833.59;;;20.16;52.11
52653;BME280;39353;42.864;12.014;2023-02-08T12:55:38;98834.75;;;20.23;52.82
52653;BME280;39353;42.864;12.014;2023-02-08T12:58:40;98829.14;;;20.31;53.59
52653;BME280;39353;42.864;12.014;2023-02-08T13:01:30;98823.16;;;20.38;54.03
52653;BME280;39353;42.864;12.014;2023-02-08T13:06:50;98825.39;;;20.49;53.50
52653;BME280;39353;42.864;12.014;2023-02-08T13:12:25;98818.63;;;20.49;52.08
52653;BME280;39353;42.864;12.014;2023-02-08T13:15:20;98819.35;;;20.49;51.37
52653;BME280;39353;42.864;12.014;2023-02-08T13:18:16;98822.20;;;20.49;50.74
52653;BME280;39353;42.864;12.014;2023-02-08T13:21:04;98825.67;;;20.49;50.36
52653;BME280;39353;42.864;12.014;2023-02-08T13:23:49;98822.98;;;20.49;49.64
52653;BME280;39353;42.864;12.014;2023-02-08T13:26:33;98816.86;;;20.48;49.22
52653;BME280;39353;42.864;12.014;2023-02-08T13:29:02;98821.64;;;20.48;48.75
52653;BME280;39353;42.864;12.014;2023-02-08T13:31:58;98822.61;;;20.49;48.37
52653;BME280;39353;42.864;12.014;2023-02-08T13:36:59;98819.93;;;20.49;48.12
52653;BME280;39353;42.864;12.014;2023-02-08T13:39:33;98816.70;;;20.48;47.98
52653;BME280;39353;42.864;12.014;2023-02-08T13:42:04;98816.91;;;20.49;47.90
52653;BME280;39353;42.864;12.014;2023-02-08T13:44:38;98820.09;;;20.53;47.66
52653;BME280;39353;42.864;12.014;2023-02-08T13:47:30;98820.67;;;20.45;46.57
52653;BME280;39353;42.864;12.014;2023-02-08T13:50:03;98822.34;;;20.44;46.65
52653;BME280;39353;42.864;12.014;2023-02-08T13:52:49;98823.23;;;20.48;46.35
52653;BME280;39353;42.864;12.014;2023-02-08T13:58:26;98817.46;;;20.61;46.15
52653;BME280;39353;42.864;12.014;2023-02-08T14:06:47;98815.13;;;20.17;39.90
52653;BME280;39353;42.864;12.014;2023-02-08T14:32:26;98815.66;;;20.72;42.90
52653;BME280;39353;42.864;12.014;2023-02-08T14:35:20;98819.71;;;20.74;43.02
52653;BME280;39353;42.864;12.014;2023-02-08T14:41:04;98810.55;;;20.78;42.37
52653;BME280;39353;42.864;12.014;2023-02-08T14:43:36;98810.48;;;20.78;42.06
52653;BME280;39353;42.864;12.014;2023-02-08T14:49:16;98810.96;;;20.77;40.96
52653;BME280;39353;42.864;12.014;2023-02-08T14:51:52;98807.55;;;20.77;41.19
52653;BME280;39353;42.864;12.014;2023-02-08T14:54:45;98811.44;;;20.76;41.44
52653;BME280;39353;42.864;12.014;2023-02-08T14:57:30;98807.45;;;20.76;41.57
52653;BME280;39353;42.864;12.014;2023-02-08T15:00:29;98810.41;;;20.75;41.68
52653;BME280;39353;42.864;12.014;2023-02-08T15:03:00;98812.46;;;20.77;41.78
52653;BME280;39353;42.864;12.014;2023-02-08T15:05:47;98807.41;;;20.78;42.02
52653;BME280;39353;42.864;12.014;2023-02-08T15:08:37;98809.15;;;20.75;41.84
52653;BME280;39353;42.864;12.014;2023-02-08T15:11:32;98812.98;;;20.76;42.10
52653;BME280;39353;42.864;12.014;2023-02-08T15:14:19;98806.70;;;20.75;42.30
52653;BME280;39353;42.864;12.014;2023-02-08T15:16:48;98804.13;;;20.73;42.34
52653;BME280;39353;42.864;12.014;2023-02-08T15:19:35;98807.60;;;20.72;42.61
52653;BME280;39353;42.864;12.014;2023-02-08T15:22:30;98810.83;;;20.71;42.47
52653;BME280;39353;42.864;12.014;2023-02-08T15:25:02;98810.20;;;20.68;42.34
52653;BME280;39353;42.864;12.014;2023-02-08T15:27:54;98815.98;;;20.66;42.46
52653;BME280;39353;42.864;12.014;2023-02-08T15:32:50;98810.23;;;20.64;42.46
52653;BME280;39353;42.864;12.014;2023-02-08T15:35:19;98805.76;;;20.64;42.44
52653;BME280;39353;42.864;12.014;2023-02-08T15:37:47;98808.05;;;20.68;42.56
52653;BME280;39353;42.864;12.014;2023-02-08T15:40:32;98799.70;;;20.72;42.52
52653;BME280;39353;42.864;12.014;2023-02-08T15:43:14;98805.54;;;20.77;42.55
52653;BME280;39353;42.864;12.014;2023-02-08T15:45:41;98805.20;;;20.81;42.63
52653;BME280;39353;42.864;12.014;2023-02-08T15:48:24;98799.04;;;20.85;42.52
52653;BME280;39353;42.864;12.014;2023-02-08T15:51:05;98800.42;;;20.90;42.55
52653;BME280;39353;42.864;12.014;2023-02-08T15:53:54;98798.80;;;20.91;42.63
52653;BME280;39353;42.864;12.014;2023-02-08T15:56:37;98801.67;;;20.93;42.68
52653;BME280;39353;42.864;12.014;2023-02-08T15:59:21;98802.71;;;20.92;42.71
52653;BME280;39353;42.864;12.014;2023-02-08T16:02:23;98803.25;;;20.91;42.78
52653;BME280;39353;42.864;12.014;2023-02-08T16:04:53;98806.35;;;20.91;42.71
52653;BME280;39353;42.864;12.014;2023-02-08T16:07:43;98805.76;;;20.90;42.62
52653;BME280;39353;42.864;12.014;2023-02-08T16:10:32;98798.73;;;20.89;42.65
52653;BME280;39353;42.864;12.014;2023-02-08T16:19:02;98806.91;;;20.85;42.73
52653;BME280;39353;42.864;12.014;2023-02-08T16:21:43;98813.01;;;20.82;42.80
52653;BME280;39353;42.864;12.014;2023-02-08T16:27:06;98810.77;;;20.76;42.81
52653;BME280;39353;42.864;12.014;2023-02-08T16:29:55;98806.84;;;20.72;42.85
52653;BME280;39353;42.864;12.014;2023-02-08T16:32:37;98815.35;;;20.68;42.93
52653;BME280;39353;42.864;12.014;2023-02-08T16:35:21;98814.27;;;20.63;43.06
52653;BME280;39353;42.864;12.014;2023-02-08T16:38:06;98819.23;;;20.61;43.04
52653;BME280;39353;42.864;12.014;2023-02-08T16:40:50;98824.27;;;20.59;43.13
52653;BME280;39353;42.864;12.014;2023-02-08T16:43:32;98824.70;;;20.56;43.11